Météo Nord-Pas-de-Calais   La météo au plus près de chez vous

Station météorologique

Observations météo à Chartres (28070)

28070001 155 m Dernier relevé à 07:36
13.9°C
Humidité 88 % Vent 4.3 km/h 1023.3 hPa

Journée consultée

Samedi 5 Septembre 2026

Synthèse de la journée

Périodes de référence en UTC

Température maximale

27.4°C

à 17:00

06h 06h

Température minimale

13.9°C

à 07:30

18h 18h

Rafale maximale

24 km/h

à 04:12

00h 00h

Précipitations

0 mm

Cumul quotidien

06h 06h

Ensoleillement

0h 0 mins

Durée quotidienne

00h 00h

Graphiques de la journée

Heure locale Réduire

Données détaillées

Relevés météo

Pas de 6 minutes Afficher les relevés infra-horaires
Relevés météo détaillés à Chartres pour le Samedi 5 Septembre 2026
Heure Température °C Point de rosée °C Humidité % Vent moyen (raf.), km/h Précipitations mm Température à 10 cm °C Température à 20 cm °C Température à 50 cm °C Température à 100 cm °C Visibilité m Hauteur neige cm Ensoleillement min Rayonnement global W/m² Pression hPa État du sol  
07:36 13.9 °C 12.5 °C 91 % 4 km/h (7 km/h) 0 mm0 mm 21.6 °C 21.6 °C 20.6 °C 19.9 °C 20000 m 0 cm 0 min 0 W/m² 1023.9 hPa
07:30 13.9 °C 12.3 °C 90 % 4 km/h (6 km/h) 0 mm0 mm 21.6 °C 21.6 °C 20.6 °C 19.9 °C 20000 m 0 cm 0 min 0 W/m² 1023.9 hPa
07:24 14 °C 12.2 °C 89 % 4 km/h (5 km/h) 0 mm0 mm 21.6 °C 21.6 °C 20.7 °C 19.9 °C 20000 m 0 cm 0 min 0 W/m² 1023.8 hPa 0  
07:18 14.1 °C 12.3 °C 89 % 4 km/h (6 km/h) 0 mm0 mm 21.6 °C 21.6 °C 20.6 °C 19.9 °C 20000 m 0 cm 0 min 0 W/m² 1023.8 hPa 0  
07:12 14.3 °C 12.7 °C 90 % 4 km/h (7 km/h) 0 mm0 mm 21.6 °C 21.6 °C 20.6 °C 19.9 °C 20000 m 0 cm 0 min 0 W/m² 1023.6 hPa 0  
07:06 14.3 °C 12.7 °C 90 % 4 km/h (7 km/h) 0 mm0 mm 21.7 °C 21.6 °C 20.7 °C 19.9 °C 20000 m 0 cm 0 min 0 W/m² 1023.6 hPa 0  
07:00 14.2 °C 12.2 °C 88 % 4 km/h (6 km/h) 0 mm0 mm 21.7 °C 21.6 °C 20.6 °C 19.9 °C 20000 m 0 cm 0 min 0 W/m² 1023.5 hPa 0  
06:54 14.5 °C 12.5 °C 88 % 3 km/h (5 km/h) 0 mm0 mm 21.7 °C 21.6 °C 20.6 °C 19.9 °C 20000 m 0 cm 0 min 0 W/m² 1023.5 hPa 0  
06:48 14.7 °C 12.9 °C 89 % 3 km/h (5 km/h) 0 mm0 mm 21.7 °C 21.6 °C 20.6 °C 19.9 °C 20000 m 0 cm 0 min 0 W/m² 1023.5 hPa 0  
06:42 14.8 °C 12.8 °C 88 % 4 km/h (8 km/h) 0 mm0 mm 21.7 °C 21.6 °C 20.6 °C 19.9 °C 20000 m 0 cm 0 min 0 W/m² 1023.4 hPa 0  
06:36 14.9 °C 12.9 °C 88 % 4 km/h (8 km/h) 0 mm0 mm 21.7 °C 21.7 °C 20.7 °C 19.9 °C 20000 m 0 cm 0 min 0 W/m² 1023.3 hPa 0  
06:30 15 °C 13 °C 88 % 4 km/h (8 km/h) 0 mm0 mm 21.7 °C 21.6 °C 20.6 °C 19.9 °C 20000 m 0 cm 0 min 0 W/m² 1023.3 hPa 0  
06:24 15.1 °C 13.1 °C 88 % 5 km/h (9 km/h) 0 mm0 mm 21.8 °C 21.7 °C 20.7 °C 19.9 °C 20000 m 0 cm 0 min 0 W/m² 1023.1 hPa 0  
06:18 15.1 °C 13.1 °C 88 % 6 km/h (10 km/h) 0 mm0 mm 21.8 °C 21.7 °C 20.6 °C 19.9 °C 20000 m 0 cm 0 min 0 W/m² 1023.1 hPa 0  
06:12 15.2 °C 13.2 °C 88 % 7 km/h (15 km/h) 0 mm0 mm 21.8 °C 21.7 °C 20.6 °C 19.9 °C 20000 m 0 cm 0 min 0 W/m² 1023.2 hPa 0  
06:06 15.3 °C 13.3 °C 88 % 7 km/h (15 km/h) 0 mm0 mm 21.8 °C 21.7 °C 20.6 °C 19.9 °C 20000 m 0 cm 0 min 0 W/m² 1023.2 hPa 0  
06:00 15.4 °C 13.4 °C 88 % 6 km/h (12 km/h) 0 mm0 mm 21.8 °C 21.7 °C 20.7 °C 19.9 °C 20000 m 0 cm 0 min 0 W/m² 1023.2 hPa 0  
05:54 15.5 °C 13.7 °C 89 % 6 km/h (12 km/h) 0 mm0 mm 21.8 °C 21.7 °C 20.6 °C 19.9 °C 20000 m 0 cm 0 min 0 W/m² 1023.1 hPa 0  
05:48 15.5 °C 13.5 °C 88 % 6 km/h (12 km/h) 0 mm0 mm 21.8 °C 21.7 °C 20.7 °C 19.9 °C 20000 m 0 cm 0 min 0 W/m² 1023 hPa 0  
05:42 15.6 °C 13.6 °C 88 % 6 km/h (12 km/h) 0 mm0 mm 21.8 °C 21.7 °C 20.6 °C 19.9 °C 20000 m 0 cm 0 min 0 W/m² 1023 hPa 0  
05:36 15.7 °C 13.7 °C 88 % 8 km/h (13 km/h) 0 mm0 mm 21.9 °C 21.7 °C 20.6 °C 19.9 °C 20000 m 0 cm 0 min 0 W/m² 1022.9 hPa 0  
05:30 15.7 °C 13.5 °C 87 % 8 km/h (13 km/h) 0 mm0 mm 21.9 °C 21.7 °C 20.6 °C 19.9 °C 20000 m 0 cm 0 min 0 W/m² 1022.9 hPa 0  
05:24 15.8 °C 13.6 °C 87 % 8 km/h (13 km/h) 0 mm0 mm 21.9 °C 21.7 °C 20.7 °C 19.9 °C 20000 m 0 cm 0 min 0 W/m² 1022.9 hPa 0  
05:18 15.9 °C 13.7 °C 87 % 8 km/h (13 km/h) 0 mm0 mm 21.9 °C 21.7 °C 20.6 °C 19.9 °C 20000 m 0 cm 0 min 0 W/m² 1022.8 hPa 0  
05:12 16 °C 13.8 °C 87 % 7 km/h (13 km/h) 0 mm0 mm 21.9 °C 21.7 °C 20.6 °C 19.9 °C 20000 m 0 cm 0 min 0 W/m² 1022.8 hPa 0  
05:06 16.2 °C 14 °C 87 % 8 km/h (17 km/h) 0 mm0 mm 21.9 °C 21.7 °C 20.6 °C 19.9 °C 20000 m 0 cm 0 min 0 W/m² 1022.6 hPa 0  
05:00 16.4 °C 14.2 °C 87 % 9 km/h (15 km/h) 0 mm0 mm 21.9 °C 21.7 °C 20.6 °C 19.9 °C 20000 m 0 cm 0 min 0 W/m² 1022.6 hPa 0  
04:54 16.5 °C 14.5 °C 88 % 9 km/h (14 km/h) 0 mm0 mm 21.9 °C 21.7 °C 20.6 °C 19.9 °C 20000 m 0 cm 0 min 0 W/m² 1022.6 hPa 0  
04:48 16.6 °C 14.4 °C 87 % 9 km/h (15 km/h) 0 mm0 mm 21.9 °C 21.7 °C 20.6 °C 19.9 °C 20000 m 0 cm 0 min 0 W/m² 1022.6 hPa 0  
04:42 16.7 °C 14.5 °C 87 % 9 km/h (17 km/h) 0 mm0 mm 21.9 °C 21.7 °C 20.6 °C 19.9 °C 20000 m 0 cm 0 min 0 W/m² 1022.6 hPa 0  
04:36 16.8 °C 14.6 °C 87 % 8 km/h (16 km/h) 0 mm0 mm 21.9 °C 21.8 °C 20.6 °C 19.9 °C 20000 m 0 cm 0 min 0 W/m² 1022.4 hPa 0  
04:30 16.9 °C 14.5 °C 86 % 9 km/h (16 km/h) 0 mm0 mm 22 °C 21.8 °C 20.6 °C 19.9 °C 20000 m 0 cm 0 min 0 W/m² 1022.3 hPa 0  
04:24 16.9 °C 14.5 °C 86 % 12 km/h (20 km/h) 0 mm0 mm 22 °C 21.8 °C 20.6 °C 19.9 °C 20000 m 0 cm 0 min 0 W/m² 1022.2 hPa 0  
04:18 17 °C 14.6 °C 86 % 12 km/h (24 km/h) 0 mm0 mm 22 °C 21.8 °C 20.6 °C 19.9 °C 20000 m 0 cm 0 min 0 W/m² 1022.2 hPa 0  
04:12 17.1 °C 14.7 °C 86 % 11 km/h (24 km/h) 0 mm0 mm 22 °C 21.8 °C 20.6 °C 19.9 °C 20000 m 0 cm 0 min 0 W/m² 1022.1 hPa 0  
04:06 17.2 °C 15 °C 87 % 9 km/h (18 km/h) 0 mm0 mm 22 °C 21.8 °C 20.6 °C 19.9 °C 20000 m 0 cm 0 min 0 W/m² 1022.2 hPa 0  
04:00 17.3 °C 15.3 °C 88 % 10 km/h (17 km/h) 0 mm0 mm 22 °C 21.8 °C 20.6 °C 19.9 °C 20000 m 0 cm 0 min 0 W/m² 1022.1 hPa 0  
03:54 17.4 °C 15.4 °C 88 % 9 km/h (17 km/h) 0 mm0 mm 22.1 °C 21.8 °C 20.6 °C 19.9 °C 20000 m 0 cm 0 min 0 W/m² 1022.1 hPa 0  
03:48 17.5 °C 15.5 °C 88 % 9 km/h (15 km/h) 0 mm0 mm 22.1 °C 21.8 °C 20.6 °C 19.9 °C 20000 m 0 cm 0 min 0 W/m² 1022.1 hPa 0  
03:42 17.5 °C 15.5 °C 88 % 10 km/h (17 km/h) 0 mm0 mm 22.1 °C 21.8 °C 20.6 °C 19.9 °C 20000 m 0 cm 0 min 0 W/m² 1021.9 hPa 0  
03:36 17.5 °C 15.5 °C 88 % 10 km/h (21 km/h) 0 mm0 mm 22.1 °C 21.8 °C 20.6 °C 19.9 °C 20000 m 0 cm 0 min 0 W/m² 1021.9 hPa 0  
03:30 17.5 °C 15.5 °C 88 % 11 km/h (21 km/h) 0 mm0 mm 22.1 °C 21.8 °C 20.6 °C 19.9 °C 20000 m 0 cm 0 min 0 W/m² 1021.7 hPa 0  
03:24 17.6 °C 15.6 °C 88 % 9 km/h (18 km/h) 0 mm0 mm 22.1 °C 21.8 °C 20.6 °C 19.9 °C 20000 m 0 cm 0 min 0 W/m² 1021.8 hPa 0  
03:18 17.7 °C 15.7 °C 88 % 9 km/h (16 km/h) 0 mm0 mm 22.1 °C 21.8 °C 20.6 °C 19.9 °C 20000 m 0 cm 0 min 0 W/m² 1021.8 hPa 0  
03:12 17.7 °C 15.7 °C 88 % 9 km/h (18 km/h) 0 mm0 mm 22.1 °C 21.8 °C 20.6 °C 19.9 °C 20000 m 0 cm 0 min 0 W/m² 1021.7 hPa
03:06 17.8 °C 15.8 °C 88 % 9 km/h (19 km/h) 0 mm0 mm 22.1 °C 21.8 °C 20.6 °C 19.9 °C 20000 m 0 cm 0 min 0 W/m² 1021.6 hPa
03:00 17.8 °C 15.8 °C 88 % 10 km/h (19 km/h) 0 mm0 mm 22.1 °C 21.8 °C 20.6 °C 19.9 °C 20000 m 0 cm 0 min 0 W/m² 1021.6 hPa 0  
02:54 17.9 °C 15.7 °C 87 % 10 km/h (18 km/h) 0 mm0 mm 22.2 °C 21.8 °C 20.6 °C 19.9 °C 20000 m 0 cm 0 min 0 W/m² 1021.6 hPa 0  
02:48 17.9 °C 15.7 °C 87 % 9 km/h (17 km/h) 0 mm0 mm 22.2 °C 21.8 °C 20.6 °C 19.9 °C 20000 m 0 cm 0 min 0 W/m² 1021.6 hPa 0  
02:42 18 °C 15.8 °C 87 % 9 km/h (20 km/h) 0 mm0 mm 22.1 °C 21.8 °C 20.6 °C 19.9 °C 20000 m 0 cm 0 min 0 W/m² 1021.4 hPa 0  
02:36 18.1 °C 15.7 °C 86 % 10 km/h (20 km/h) 0 mm0 mm 22.2 °C 21.8 °C 20.6 °C 19.9 °C 20000 m 0 cm 0 min 0 W/m² 1021.3 hPa 0  
02:30 18.2 °C 15.8 °C 86 % 10 km/h (18 km/h) 0 mm0 mm 22.2 °C 21.8 °C 20.6 °C 19.9 °C 20000 m 0 cm 0 min 0 W/m² 1021.5 hPa 0  
02:24 18.2 °C 15.6 °C 85 % 12 km/h (21 km/h) 0 mm0 mm 22.2 °C 21.8 °C 20.6 °C 19.9 °C 20000 m 0 cm 0 min 0 W/m² 1021.3 hPa 0  
02:18 18.2 °C 15.6 °C 85 % 11 km/h (21 km/h) 0 mm0 mm 22.2 °C 21.9 °C 20.6 °C 19.9 °C 20000 m 0 cm 0 min 0 W/m² 1021.1 hPa 0  
02:12 18.3 °C 15.9 °C 86 % 10 km/h (19 km/h) 0 mm0 mm 22.2 °C 21.8 °C 20.6 °C 19.9 °C 20000 m 0 cm 0 min 0 W/m² 1021 hPa 0  
02:06 18.4 °C 16.2 °C 87 % 10 km/h (18 km/h) 0 mm0 mm 22.2 °C 21.9 °C 20.6 °C 19.9 °C 20000 m 0 cm 0 min 0 W/m² 1021.1 hPa 0  
02:00 18.5 °C 16.5 °C 88 % 8 km/h (13 km/h) 0 mm0 mm 22.2 °C 21.9 °C 20.6 °C 19.9 °C 20000 m 0 cm 0 min 0 W/m² 1021.1 hPa 0  
01:54 18.6 °C 16.6 °C 88 % 7 km/h (12 km/h) 0 mm0 mm 22.3 °C 21.9 °C 20.6 °C 19.9 °C 20000 m 0 cm 0 min 0 W/m² 1020.9 hPa 0  
01:48 18.7 °C 16.7 °C 88 % 8 km/h (14 km/h) 0 mm0 mm 22.3 °C 21.9 °C 20.6 °C 19.9 °C 20000 m 0 cm 0 min 0 W/m² 1021 hPa 0  
01:42 18.7 °C 16.7 °C 88 % 6 km/h (14 km/h) 0 mm0 mm 22.3 °C 21.9 °C 20.6 °C 19.9 °C 20000 m 0 cm 0 min 0 W/m² 1021.1 hPa 0  
01:36 18.7 °C 16.7 °C 88 % 8 km/h (12 km/h) 0 mm0 mm 22.3 °C 21.9 °C 20.6 °C 19.9 °C 20000 m 0 cm 0 min 0 W/m² 1021.1 hPa 0  
01:30 18.8 °C 16.8 °C 88 % 8 km/h (13 km/h) 0 mm0 mm 22.3 °C 21.9 °C 20.6 °C 19.9 °C 20000 m 0 cm 0 min 0 W/m² 1021.2 hPa 0  
01:24 18.8 °C 16.6 °C 87 % 8 km/h (13 km/h) 0 mm0 mm 22.3 °C 21.9 °C 20.6 °C 19.9 °C 20000 m 0 cm 0 min 0 W/m² 1021.2 hPa 0  
01:18 18.8 °C 16.6 °C 87 % 6 km/h (12 km/h) 0 mm0 mm 22.3 °C 21.9 °C 20.6 °C 19.9 °C 20000 m 0 cm 0 min 0 W/m² 1021.2 hPa 0  
01:12 18.8 °C 16.6 °C 87 % 7 km/h (12 km/h) 0 mm0 mm 22.3 °C 21.9 °C 20.6 °C 19.9 °C 20000 m 0 cm 0 min 0 W/m² 1021 hPa 0  
01:06 18.8 °C 16.6 °C 87 % 7 km/h (12 km/h) 0 mm0 mm 22.3 °C 21.9 °C 20.6 °C 19.9 °C 20000 m 0 cm 0 min 0 W/m² 1021.1 hPa 0  
01:00 18.8 °C 16.6 °C 87 % 8 km/h (15 km/h) 0 mm0 mm 22.3 °C 21.9 °C 20.6 °C 19.9 °C 20000 m 0 cm 0 min 0 W/m² 1021 hPa 0  
00:54 18.8 °C 16.6 °C 87 % 8 km/h (15 km/h) 0 mm0 mm 22.3 °C 21.9 °C 20.6 °C 19.9 °C 20000 m 0 cm 0 min 0 W/m² 1020.9 hPa 0  
00:48 18.8 °C 16.4 °C 86 % 8 km/h (16 km/h) 0 mm0 mm 22.3 °C 21.9 °C 20.6 °C 19.9 °C 20000 m 0 cm 0 min 0 W/m² 1020.9 hPa 0  
00:42 18.8 °C 16.4 °C 86 % 10 km/h (21 km/h) 0 mm0 mm 22.4 °C 21.9 °C 20.6 °C 19.9 °C 19750 m 0 cm 0 min 0 W/m² 1021.1 hPa 0  
00:36 18.9 °C 16.3 °C 85 % 12 km/h (21 km/h) 0 mm0 mm 22.4 °C 21.9 °C 20.6 °C 19.9 °C 14870 m 0 cm 0 min 0 W/m² 1021.1 hPa 0  
00:30 19.1 °C 16.3 °C 84 % 12 km/h (21 km/h) 0 mm0 mm 22.4 °C 21.9 °C 20.6 °C 19.9 °C 16520 m 0 cm 0 min 0 W/m² 1021 hPa 0  
00:24 19.1 °C 16.1 °C 83 % 12 km/h (21 km/h) 0 mm0 mm 22.4 °C 21.9 °C 20.6 °C 19.9 °C 20000 m 0 cm 0 min 0 W/m² 1021 hPa 0  
00:18 19.1 °C 16.3 °C 84 % 9 km/h (17 km/h) 0 mm0 mm 22.4 °C 21.9 °C 20.6 °C 19.9 °C 20000 m 0 cm 0 min 0 W/m² 1020.8 hPa 0  
00:12 19.2 °C 16.4 °C 84 % 10 km/h (18 km/h) 0 mm0 mm 22.4 °C 21.9 °C 20.6 °C 19.9 °C 20000 m 0 cm 0 min 0 W/m² 1020.9 hPa 0  
00:06 19.3 °C 16.5 °C 84 % 12 km/h (24 km/h) 0 mm0 mm 22.5 °C 21.9 °C 20.6 °C 19.9 °C 20000 m 0 cm 0 min 0 W/m² 1020.9 hPa 0  
00:00 19.5 °C 16.5 °C 83 % 14 km/h (24 km/h) 0 mm0 mm 22.4 °C 21.9 °C 20.6 °C 19.9 °C 20000 m 0 cm 0 min 0 W/m² 1020.9 hPa 0  

Données via Météo-France

Relevés météo à Chartres

Cette page rassemble les observations de la station de Chartres : température, humidité, vent, précipitations et pression atmosphérique. Les graphiques facilitent le suivi de la journée, tandis que le tableau donne accès aux mesures horaires et infra-horaires disponibles.

Pour replacer ces mesures dans leur contexte, consultez la climatologie de Chartres ainsi que ses normales et records. Retrouvez aussi la carte des observations météo en temps réel.